Ardenhurst, Minnesota
Current Conditions -  °F | °C
As of 3:53 AM on Wednesday 26 Nov 2014 (Local Time) from KFOZ Reporting Station
Light Snow Light Snow  
Wind Chill: 16°   Ceiling: 3100
Heat Index: 16°   Visibility: 5mi
Dew Point: 10°   Wind: 0mph
Humidity: 79%   Direction: NA
Pressure: 30.11"   Gusts: NA
Location:  47.8312°N, 94.1459°W
Report Text: KFOZ 260953Z AUTO 00000KT 5SM -SN SCT009 BKN031 OVC055 M09/M12 A3011 RMK AO2
Loading
Personal Weather Stations






























Interactive Weather Map New forecast layout! Learn more

10-Day Weather Forecast

Advertisements
Track Severe Weather on mobile